< Typhoon 197514 1975 Season Typhoon 197516 >
Typhoon 197515 (ELSIE)
General InformationTrack Information on Google Maps || Disaster Info.ResourceGoogle EarthGE AnimationAtom FeedGeoJSON
Detalied Best Track (Time Zone = UTC)
Year Month Day Hour Lat. Long. Pressure (hPa) Wind (kt) Class Image Chart
1975 10 8 18 12.0 139.0 1006 0 2 -- Chart
1975 10 9 00 12.7 137.5 1006 0 2 -- Chart
1975 10 9 06 13.3 136.5 1002 0 2 -- Chart
1975 10 9 12 14.3 135.7 998 0 2 -- Chart
1975 10 9 18 15.2 134.8 992 0 2 -- Chart
1975 10 10 00 16.3 133.5 985 0 9 -- Chart
1975 10 10 06 16.8 131.8 985 0 9 -- Chart
1975 10 10 12 17.3 130.5 985 0 9 -- Chart
1975 10 10 18 17.8 129.0 975 0 9 -- Chart
1975 10 11 00 18.3 127.5 960 0 9 -- Chart
1975 10 11 06 18.8 126.1 930 0 9 -- Chart
1975 10 11 12 19.3 125.1 910 0 9 -- Chart
1975 10 11 18 19.8 124.0 900 0 9 -- Chart
1975 10 12 00 20.2 123.1 900 0 9 -- Chart
1975 10 12 06 20.5 122.2 905 0 9 -- Chart
1975 10 12 12 20.8 121.5 920 0 9 -- Chart
1975 10 12 18 21.0 120.5 930 0 9 -- Chart
1975 10 13 00 21.4 119.5 940 0 9 -- Chart
1975 10 13 06 21.5 118.4 950 0 9 -- Chart
1975 10 13 12 21.7 117.4 960 0 9 -- Chart
1975 10 13 18 21.7 116.3 965 0 9 -- Chart
1975 10 14 00 21.8 115.3 980 0 9 -- Chart
1975 10 14 06 21.8 114.2 990 0 9 -- Chart
1975 10 14 12 21.9 113.3 995 0 9 -- Chart
1975 10 14 18 21.4 113.3 1006 0 6 -- Chart
1975 10 15 00 21.0 113.0 1008 0 6 -- Chart
Japan Meteorological Agency Best Track Data | Correction Date : 1989-06-01
< Typhoon 197514 1975 Season Typhoon 197516 >

Help